Time;durP1;ratioP1;P1;durP2;ratioP2;P2;SDS_P1;SDS_P2;PMS_P1;PMS_P2;Temp;Humidity;BMP_temperature;BMP_pressure;BME280_temperature;BME280_humidity;BME280_pressure;Samples;Min_cycle;Max_cycle;Signal;HPM_P1;HPM_P2
2022/12/25 00:00:06;;;;;;;6.57;4.33;;;8.40;99.90;;;;;;5033261;28;20181;-71
2022/12/25 00:02:31;;;;;;;4.33;3.93;;;8.40;99.90;;;;;;5033492;28;20808;-71
2022/12/25 00:04:57;;;;;;;6.20;3.70;;;8.40;99.90;;;;;;5033673;28;20508;-71
2022/12/25 00:07:23;;;;;;;7.40;4.30;;;8.40;99.90;;;;;;5033464;28;20175;-71
2022/12/25 00:09:48;;;;;;;5.63;4.47;;;8.40;99.90;;;;;;5033176;28;20174;-71
2022/12/25 00:12:14;;;;;;;4.67;3.63;;;8.40;99.90;;;;;;4998512;28;1028920;-69
2022/12/25 00:14:39;;;;;;;4.03;3.63;;;8.40;99.90;;;;;;5034464;28;20656;-69
2022/12/25 00:17:05;;;;;;;4.60;4.20;;;8.40;99.90;;;;;;5034662;28;20639;-69
2022/12/25 00:19:30;;;;;;;4.90;4.10;;;8.40;99.90;;;;;;5034199;28;20173;-69
2022/12/25 00:21:55;;;;;;;4.70;4.10;;;8.40;99.90;;;;;;5034312;28;20198;-69
2022/12/25 00:24:21;;;;;;;5.33;4.50;;;8.40;99.90;;;;;;5034306;28;20174;-69
2022/12/25 00:26:46;;;;;;;4.57;3.27;;;8.40;99.90;;;;;;5034297;28;20178;-69
2022/12/25 00:29:12;;;;;;;4.33;3.87;;;8.40;99.90;;;;;;5033988;28;20262;-71
2022/12/25 00:31:38;;;;;;;5.00;3.83;;;8.40;99.90;;;;;;5034180;28;20813;-69
2022/12/25 00:34:04;;;;;;;7.00;4.07;;;8.40;99.90;;;;;;5034138;28;20429;-69
2022/12/25 00:36:29;;;;;;;3.97;3.23;;;8.40;99.90;;;;;;5034003;28;20668;-70
2022/12/25 00:38:55;;;;;;;8.23;4.03;;;8.40;99.90;;;;;;5033900;28;20206;-70
2022/12/25 00:44:09;;;;;;;4.17;3.77;;;8.40;99.90;;;;;;5034355;28;20257;-69
2022/12/25 00:46:35;;;;;;;5.10;3.57;;;8.50;99.90;;;;;;5015067;28;20421;-69
2022/12/25 00:49:01;;;;;;;4.43;3.57;;;8.50;99.90;;;;;;5033716;28;20856;-69
2022/12/25 00:51:27;;;;;;;4.53;3.97;;;8.50;99.90;;;;;;5033767;28;20421;-70
2022/12/25 00:53:52;;;;;;;6.10;4.33;;;8.50;99.90;;;;;;5033652;28;20531;-70
2022/12/25 00:56:18;;;;;;;6.13;4.17;;;8.50;99.90;;;;;;5033725;28;20209;-69
2022/12/25 00:58:43;;;;;;;6.63;4.47;;;8.50;99.90;;;;;;5033471;28;20689;-70
2022/12/25 01:01:10;;;;;;;7.00;3.20;;;8.40;99.90;;;;;;5033669;28;20174;-70
2022/12/25 01:03:36;;;;;;;5.60;4.00;;;8.50;99.90;;;;;;5033660;28;20186;-69
2022/12/25 01:06:05;;;;;;;4.23;3.83;;;8.50;99.90;;;;;;5033483;28;20432;-69
2022/12/25 01:08:34;;;;;;;4.93;4.40;;;8.40;99.90;;;;;;5033150;28;20181;-69
2022/12/25 01:11:03;;;;;;;8.20;5.47;;;8.40;99.90;;;;;;5033625;28;20795;-70
2022/12/25 01:13:30;;;;;;;7.23;4.20;;;8.40;99.90;;;;;;5033294;28;20525;-69
2022/12/25 01:15:55;;;;;;;6.97;4.07;;;8.40;99.90;;;;;;5033279;28;20607;-69
2022/12/25 01:18:23;;;;;;;3.97;3.60;;;8.50;99.90;;;;;;5033291;28;20462;-69
2022/12/25 01:20:48;;;;;;;6.93;4.17;;;8.50;99.90;;;;;;5033189;28;20221;-69
2022/12/25 01:23:14;;;;;;;4.60;4.17;;;8.50;99.90;;;;;;5033393;28;20444;-69
2022/12/25 01:25:40;;;;;;;4.57;4.13;;;8.50;99.90;;;;;;5033156;28;20656;-69
2022/12/25 01:28:06;;;;;;;4.40;4.00;;;8.50;99.90;;;;;;5033146;28;20189;-69
2022/12/25 01:30:32;;;;;;;5.57;3.93;;;8.50;99.90;;;;;;5033052;28;20189;-69
2022/12/25 01:32:57;;;;;;;4.60;4.17;;;8.50;99.90;;;;;;5033043;28;20206;-69
2022/12/25 01:35:23;;;;;;;4.93;3.83;;;8.50;99.90;;;;;;5033154;28;20527;-69
2022/12/25 01:37:50;;;;;;;4.40;3.33;;;8.60;99.90;;;;;;5033263;28;20213;-69
2022/12/25 01:40:16;;;;;;;6.30;3.67;;;8.60;99.90;;;;;;5032699;28;20640;-69
2022/12/25 01:42:42;;;;;;;5.40;4.00;;;8.70;99.90;;;;;;5032544;28;20447;-70
2022/12/25 01:45:30;;;;;;;7.20;3.47;;;8.70;99.90;;;;;;5032892;28;20717;-69
2022/12/25 01:47:56;;;;;;;4.50;3.70;;;8.70;99.90;;;;;;5032966;28;20417;-69
2022/12/25 01:50:22;;;;;;;5.07;4.57;;;8.70;99.90;;;;;;5032635;28;20495;-70
2022/12/25 01:52:49;;;;;;;4.33;3.93;;;8.70;99.90;;;;;;5032642;28;20958;-70
2022/12/25 01:55:15;;;;;;;4.23;3.70;;;8.80;99.90;;;;;;5032582;28;20189;-69
2022/12/25 01:57:42;;;;;;;7.23;3.93;;;8.80;99.90;;;;;;5032296;28;20771;-70
2022/12/25 02:00:09;;;;;;;4.30;3.90;;;8.70;99.90;;;;;;5032286;28;20427;-69
2022/12/25 02:02:35;;;;;;;3.77;3.47;;;8.70;99.90;;;;;;5032455;28;20447;-70
2022/12/25 02:05:07;;;;;;;4.33;3.97;;;8.70;99.90;;;;;;5032471;28;20429;-69
2022/12/25 02:07:34;;;;;;;4.00;3.60;;;8.70;99.90;;;;;;5032609;28;20651;-69
2022/12/25 02:10:00;;;;;;;3.83;3.43;;;8.60;99.90;;;;;;5032165;28;20942;-69
2022/12/25 02:12:32;;;;;;;4.03;3.10;;;8.60;99.90;;;;;;5032172;28;20491;-69
2022/12/25 02:15:08;;;;;;;3.87;3.30;;;8.60;99.90;;;;;;5032262;28;20178;-69
2022/12/25 02:17:46;;;;;;;4.53;3.70;;;8.50;99.90;;;;;;5032377;28;20503;-70
2022/12/25 02:20:33;;;;;;;4.77;4.37;;;8.50;99.90;;;;;;5032134;28;20405;-69
2022/12/25 02:23:20;;;;;;;5.03;3.90;;;8.60;99.90;;;;;;5032144;28;20524;-69
2022/12/25 02:26:00;;;;;;;5.40;4.00;;;8.50;99.90;;;;;;5032187;28;20938;-69
2022/12/25 02:28:54;;;;;;;4.03;3.73;;;8.60;99.90;;;;;;5032071;28;20413;-69
2022/12/25 02:31:42;;;;;;;6.63;3.93;;;8.60;99.90;;;;;;5032057;28;20913;-70
2022/12/25 02:34:20;;;;;;;4.50;4.13;;;8.60;99.90;;;;;;5032144;28;20401;-69
2022/12/25 02:37:00;;;;;;;3.97;3.67;;;8.60;99.90;;;;;;5031954;28;20488;-69
2022/12/25 02:39:56;;;;;;;4.37;3.60;;;8.60;99.90;;;;;;5031846;28;20408;-69
2022/12/25 03:08:38;;;;;;;6.10;5.57;;;8.70;99.90;;;;;;5031568;28;20432;-69
2022/12/25 03:13:55;;;;;;;9.00;6.93;;;8.70;99.90;;;;;;5035909;28;20458;-69
2022/12/25 03:26:53;;;;;;;9.03;6.70;;;8.70;99.90;;;;;;5035538;28;20466;-69
2022/12/25 03:27:23;;;;;;;8.00;7.30;;;8.60;99.90;;;;;;5035431;28;20423;-69
2022/12/25 03:32:57;;;;;;;8.87;7.30;;;8.60;99.90;;;;;;5035281;28;20455;-68
2022/12/25 03:35:43;;;;;;;9.60;8.60;;;8.60;99.90;;;;;;5035287;28;20441;-70
2022/12/25 03:45:41;;;;;;;8.00;7.30;;;8.60;99.90;;;;;;5035200;28;20400;-70
2022/12/25 04:37:38;;;;;;;15.40;11.90;;;8.30;99.90;;;;;;5034227;28;20408;-70
2022/12/25 04:40:04;;;;;;;13.77;12.37;;;8.20;99.90;;;;;;5033876;28;20414;-70
2022/12/25 04:42:30;;;;;;;12.00;10.83;;;8.30;99.90;;;;;;5033457;28;20202;-71
2022/12/25 04:44:56;;;;;;;14.40;10.20;;;8.30;99.90;;;;;;5034066;28;20504;-69
2022/12/25 04:47:21;;;;;;;12.57;11.47;;;8.30;99.90;;;;;;5034012;28;20662;-69
2022/12/25 04:49:47;;;;;;;12.47;11.27;;;8.30;99.90;;;;;;5033732;28;20417;-69
2022/12/25 04:52:12;;;;;;;9.90;9.00;;;8.30;99.90;;;;;;5033792;28;20205;-69
2022/12/25 04:54:38;;;;;;;10.77;9.67;;;8.30;99.90;;;;;;5034050;28;20174;-69
2022/12/25 04:57:03;;;;;;;10.30;8.73;;;8.30;99.90;;;;;;5033941;28;20256;-70
2022/12/25 04:59:29;;;;;;;9.63;8.73;;;8.40;99.90;;;;;;5033449;28;20167;-69
2022/12/25 05:01:54;;;;;;;11.67;8.90;;;8.40;99.90;;;;;;5033816;28;20197;-70
2022/12/25 05:04:20;;;;;;;10.10;8.07;;;8.40;99.90;;;;;;5033643;28;20171;-69
2022/12/25 05:06:46;;;;;;;13.10;9.53;;;8.40;99.90;;;;;;5033602;28;20174;-69
2022/12/25 05:09:11;;;;;;;10.30;7.70;;;8.40;99.90;;;;;;5033350;28;20609;-69
2022/12/25 05:11:37;;;;;;;9.23;8.33;;;8.40;99.90;;;;;;5033363;28;20186;-70
2022/12/25 05:14:02;;;;;;;9.77;8.87;;;8.40;99.90;;;;;;5033531;28;20580;-69
2022/12/25 05:16:28;;;;;;;9.47;8.60;;;8.40;99.90;;;;;;5033302;28;20190;-69
2022/12/25 05:18:53;;;;;;;8.97;8.17;;;8.40;99.90;;;;;;5033027;28;20170;-70
2022/12/25 05:21:19;;;;;;;10.03;7.60;;;8.40;99.90;;;;;;5033365;28;20216;-69
2022/12/25 05:23:48;;;;;;;8.73;6.77;;;8.40;99.90;;;;;;5033214;28;20186;-70
2022/12/25 05:26:15;;;;;;;10.17;6.33;;;8.40;99.90;;;;;;5033317;28;20570;-69
2022/12/25 05:28:41;;;;;;;6.97;6.37;;;8.40;99.90;;;;;;5032944;28;20417;-69
2022/12/25 05:31:07;;;;;;;7.40;6.60;;;8.40;99.90;;;;;;5033114;28;20424;-70
2022/12/25 05:33:32;;;;;;;6.43;5.90;;;8.50;99.90;;;;;;5032297;28;20995;-71
2022/12/25 05:36:05;;;;;;;5.93;5.47;;;8.40;99.90;;;;;;5033152;28;20197;-69
2022/12/25 05:38:31;;;;;;;7.30;6.13;;;8.50;99.90;;;;;;5032629;28;20174;-69
2022/12/25 05:40:57;;;;;;;6.87;6.17;;;8.50;99.90;;;;;;5032943;28;20487;-69
2022/12/25 05:43:22;;;;;;;8.83;5.60;;;8.50;99.90;;;;;;5032309;28;20476;-69
2022/12/25 05:45:49;;;;;;;6.00;5.50;;;8.50;99.90;;;;;;5032796;28;20257;-69
2022/12/25 05:48:15;;;;;;;5.47;4.97;;;8.50;99.90;;;;;;5032648;28;20424;-70
2022/12/25 05:50:40;;;;;;;5.77;4.60;;;8.50;99.90;;;;;;5032912;28;20432;-69
2022/12/25 05:53:07;;;;;;;5.97;5.40;;;8.50;99.90;;;;;;5032763;28;20284;-69
2022/12/25 05:55:37;;;;;;;4.47;4.00;;;8.50;99.90;;;;;;5032582;28;20190;-68
2022/12/25 05:58:02;;;;;;;5.63;5.13;;;8.50;99.90;;;;;;5032648;28;21102;-69
2022/12/25 06:00:28;;;;;;;5.53;4.80;;;8.50;99.90;;;;;;5032348;28;20528;-69
2022/12/25 06:02:53;;;;;;;5.97;4.53;;;8.50;99.90;;;;;;5032675;28;20213;-69
2022/12/25 06:05:19;;;;;;;6.50;5.90;;;8.50;99.90;;;;;;5032493;28;20178;-71
2022/12/25 06:07:45;;;;;;;5.23;4.80;;;8.50;99.90;;;;;;5032458;28;20178;-69
2022/12/25 06:10:10;;;;;;;5.20;4.60;;;8.50;99.90;;;;;;5032311;28;20173;-69
2022/12/25 06:12:36;;;;;;;5.07;4.57;;;8.50;99.90;;;;;;5032659;28;20206;-71
2022/12/25 06:15:01;;;;;;;6.10;4.60;;;8.50;99.90;;;;;;5032421;28;20178;-71
2022/12/25 06:17:27;;;;;;;5.17;4.60;;;8.50;99.90;;;;;;5032353;28;20599;-71
2022/12/25 06:19:53;;;;;;;4.10;3.70;;;8.60;99.90;;;;;;5032107;28;20170;-71
2022/12/25 06:22:19;;;;;;;4.17;3.77;;;8.60;99.90;;;;;;5032347;28;20573;-71
2022/12/25 06:24:44;;;;;;;3.57;3.27;;;8.60;99.90;;;;;;5032235;28;20471;-72
2022/12/25 06:27:10;;;;;;;3.83;3.43;;;8.60;99.90;;;;;;5032179;28;20213;-71
2022/12/25 06:29:35;;;;;;;3.53;3.23;;;8.60;99.90;;;;;;5031828;28;20170;-71
2022/12/25 06:32:01;;;;;;;4.63;3.20;;;8.60;99.90;;;;;;5032023;28;20202;-71
2022/12/25 06:34:26;;;;;;;3.80;3.50;;;8.60;99.90;;;;;;5032228;28;20193;-71
2022/12/25 06:36:52;;;;;;;3.90;3.60;;;8.60;99.90;;;;;;5032043;28;20197;-71
2022/12/25 06:39:20;;;;;;;3.30;3.10;;;8.60;99.90;;;;;;5031783;28;20169;-71
2022/12/25 06:41:46;;;;;;;3.77;2.70;;;8.70;99.90;;;;;;5031967;28;20421;-71
2022/12/25 06:44:11;;;;;;;3.47;3.27;;;8.70;99.90;;;;;;5031121;28;20424;-71
2022/12/25 06:46:37;;;;;;;3.87;3.53;;;8.70;99.90;;;;;;5031762;28;20208;-71
2022/12/25 06:49:02;;;;;;;3.60;3.00;;;8.70;99.90;;;;;;5031783;28;20174;-71
2022/12/25 06:51:29;;;;;;;3.03;2.77;;;8.70;99.90;;;;;;5031973;28;20170;-71
2022/12/25 06:53:56;;;;;;;3.30;3.10;;;8.80;99.90;;;;;;5031771;28;20193;-71
2022/12/25 06:56:26;;;;;;;3.47;3.13;;;8.80;99.90;;;;;;5031773;28;20453;-71
2022/12/25 06:58:54;;;;;;;3.43;2.93;;;8.80;99.90;;;;;;5031502;28;20421;-71
2022/12/25 07:01:28;;;;;;;3.50;3.20;;;8.70;99.90;;;;;;5031851;28;20820;-71
2022/12/25 07:03:57;;;;;;;3.63;3.33;;;8.80;99.90;;;;;;5031738;28;20989;-71
2022/12/25 07:06:23;;;;;;;3.57;3.30;;;8.70;99.90;;;;;;5031849;28;20844;-71
2022/12/25 07:08:49;;;;;;;7.33;3.70;;;8.70;99.90;;;;;;5031495;28;20452;-71
2022/12/25 07:11:14;;;;;;;3.60;3.30;;;8.70;99.90;;;;;;5031766;28;20201;-71
2022/12/25 07:13:40;;;;;;;4.30;3.20;;;8.70;99.90;;;;;;5031669;28;20597;-71
2022/12/25 07:16:06;;;;;;;3.43;3.23;;;8.70;99.90;;;;;;5031690;28;20748;-71
2022/12/25 07:18:33;;;;;;;5.17;3.50;;;8.70;99.90;;;;;;5031478;28;20170;-71
2022/12/25 07:21:03;;;;;;;3.43;3.13;;;8.70;99.90;;;;;;5031631;28;20421;-71
2022/12/25 07:23:29;;;;;;;2.60;2.40;;;8.70;99.90;;;;;;5031504;28;20479;-71
2022/12/25 07:25:56;;;;;;;2.90;2.60;;;8.80;99.90;;;;;;5031640;28;20783;-71
2022/12/25 07:28:22;;;;;;;3.97;3.23;;;8.90;99.90;;;;;;5031312;28;20607;-71
2022/12/25 07:30:47;;;;;;;3.10;2.90;;;8.90;99.90;;;;;;5031937;28;20441;-71
2022/12/25 07:33:13;;;;;;;3.40;2.83;;;9.00;99.90;;;;;;5031495;28;20190;-71
2022/12/25 07:35:39;;;;;;;3.20;3.00;;;9.00;99.90;;;;;;5031464;28;20206;-71
2022/12/25 07:38:04;;;;;;;4.60;2.70;;;8.90;99.90;;;;;;5031418;28;20593;-71
2022/12/25 07:40:30;;;;;;;2.60;2.40;;;8.90;99.90;;;;;;5031250;28;20409;-71
2022/12/25 07:42:55;;;;;;;3.20;2.97;;;8.90;99.90;;;;;;5031150;28;20602;-71
2022/12/25 07:45:21;;;;;;;3.40;3.10;;;8.90;99.90;;;;;;5031440;28;20727;-71
2022/12/25 07:47:46;;;;;;;2.87;2.57;;;8.90;99.90;;;;;;5031359;28;20183;-71
2022/12/25 07:50:12;;;;;;;7.87;2.27;;;8.90;99.90;;;;;;5031093;28;20265;-71
2022/12/25 07:52:38;;;;;;;3.70;3.10;;;8.80;99.90;;;;;;5031403;28;20189;-71
2022/12/25 07:55:04;;;;;;;3.40;3.10;;;8.80;99.90;;;;;;5031323;28;20182;-71
2022/12/25 07:57:29;;;;;;;2.57;2.37;;;8.80;99.90;;;;;;5034482;28;20553;-71
2022/12/25 07:59:55;;;;;;;5.93;3.67;;;8.90;99.90;;;;;;5034623;28;20405;-71
2022/12/25 08:02:27;;;;;;;3.77;2.77;;;8.90;99.90;;;;;;5034666;28;20222;-71
2022/12/25 08:04:53;;;;;;;3.30;3.00;;;8.90;99.90;;;;;;5034842;28;20212;-71
2022/12/25 08:07:18;;;;;;;3.70;2.63;;;8.90;99.90;;;;;;5034696;28;20452;-71
2022/12/25 08:09:44;;;;;;;4.43;2.43;;;8.90;99.90;;;;;;5034375;28;20930;-71
2022/12/25 08:12:09;;;;;;;2.20;1.87;;;9.00;99.90;;;;;;5034455;28;20245;-71
2022/12/25 08:14:35;;;;;;;2.50;2.30;;;9.10;99.90;;;;;;5034647;28;20183;-71
2022/12/25 08:17:00;;;;;;;2.73;2.47;;;9.10;99.90;;;;;;5034480;28;20352;-71
2022/12/25 08:19:26;;;;;;;6.97;2.77;;;9.20;99.90;;;;;;5034221;28;20185;-71
2022/12/25 08:21:51;;;;;;;4.30;3.10;;;9.40;99.90;;;;;;5034577;28;20194;-71
2022/12/25 08:24:17;;;;;;;1.83;1.73;;;9.70;99.90;;;;;;5016798;28;20174;-71
2022/12/25 08:26:42;;;;;;;9.37;6.40;;;10.30;99.90;;;;;;5034350;28;20201;-71
2022/12/25 08:29:08;;;;;;;6.03;5.53;;;11.20;99.90;;;;;;5034003;28;20616;-71
2022/12/25 08:31:33;;;;;;;5.30;4.97;;;12.40;99.90;;;;;;5034198;28;20652;-71
2022/12/25 08:34:01;;;;;;;8.87;7.20;;;13.90;99.90;;;;;;5034236;28;20181;-72
2022/12/25 08:36:27;;;;;;;5.23;4.77;;;15.30;99.90;;;;;;5034125;28;20213;-72
2022/12/25 08:38:53;;;;;;;4.27;3.80;;;16.50;99.90;;;;;;5033874;28;20419;-71
2022/12/25 08:41:18;;;;;;;5.93;5.17;;;17.50;99.90;;;;;;5033840;28;20185;-71
2022/12/25 08:43:44;;;;;;;3.70;3.40;;;18.00;99.90;;;;;;5034019;28;20209;-71
2022/12/25 08:46:10;;;;;;;3.53;3.23;;;17.90;99.90;;;;;;5034013;28;20265;-71
2022/12/25 08:48:36;;;;;;;3.70;3.40;;;17.80;99.90;;;;;;5033656;28;20216;-71
2022/12/25 08:51:02;;;;;;;3.70;3.20;;;17.50;99.90;;;;;;5034015;28;20545;-71
2022/12/25 08:53:27;;;;;;;3.47;3.23;;;17.30;99.90;;;;;;5033810;28;20221;-71
2022/12/25 08:56:02;;;;;;;3.67;3.37;;;17.10;99.90;;;;;;5033623;28;20456;-71
2022/12/25 08:58:28;;;;;;;3.57;3.27;;;17.00;99.90;;;;;;5033778;28;20834;-71
2022/12/25 09:00:53;;;;;;;4.33;3.93;;;17.00;99.90;;;;;;5033694;28;20421;-71
2022/12/25 09:03:19;;;;;;;4.30;3.90;;;17.20;99.90;;;;;;5033645;28;20182;-72
2022/12/25 09:05:44;;;;;;;3.13;2.93;;;18.00;99.90;;;;;;5033688;28;20184;-72
2022/12/25 09:08:10;;;;;;;3.43;3.17;;;18.80;99.90;;;;;;5032418;28;20501;-72
2022/12/25 09:10:36;;;;;;;2.97;2.60;;;19.60;99.90;;;;;;5033282;28;20178;-72
2022/12/25 09:13:02;;;;;;;2.80;2.60;;;20.50;99.90;;;;;;5033346;28;20209;-72
2022/12/25 09:15:28;;;;;;;4.33;4.03;;;21.30;99.90;;;;;;5033366;28;20467;-72
2022/12/25 09:17:53;;;;;;;4.10;3.17;;;21.50;99.90;;;;;;5033368;28;20504;-73
2022/12/25 09:20:19;;;;;;;5.23;4.83;;;21.70;99.90;;;;;;5033118;28;20178;-72
2022/12/25 09:22:44;;;;;;;4.40;3.57;;;21.50;99.90;;;;;;5033265;28;20235;-72
2022/12/25 09:25:10;;;;;;;2.40;2.20;;;21.20;99.90;;;;;;5033160;28;20209;-72
2022/12/25 09:27:36;;;;;;;2.00;1.90;;;21.00;99.90;;;;;;5033280;28;20268;-72
2022/12/25 09:30:02;;;;;;;2.03;1.83;;;20.90;99.90;;;;;;5032929;28;20186;-72
2022/12/25 09:32:27;;;;;;;1.87;1.77;;;21.40;99.90;;;;;;5032977;28;20671;-72
2022/12/25 09:34:52;;;;;;;4.30;3.90;;;22.40;99.90;;;;;;5033129;28;20170;-73
2022/12/25 09:37:18;;;;;;;3.57;2.07;;;23.40;99.90;;;;;;5033014;28;20252;-72
2022/12/25 09:39:43;;;;;;;2.53;2.33;;;23.60;99.90;;;;;;5032435;28;20708;-72
2022/12/25 09:42:23;;;;;;;2.10;2.00;;;23.30;99.90;;;;;;5032778;28;20209;-72
2022/12/25 09:45:01;;;;;;;3.03;2.60;;;24.30;99.90;;;;;;5032898;28;20175;-73
2022/12/25 09:47:30;;;;;;;1.87;1.77;;;24.80;99.90;;;;;;5032798;28;20475;-73
2022/12/25 09:50:23;;;;;;;6.03;2.50;;;25.20;99.20;;;;;;5032471;28;20421;-73
2022/12/25 09:53:02;;;;;;;3.63;2.07;;;26.30;95.50;;;;;;5032828;28;20440;-73
2022/12/25 09:55:30;;;;;;;2.67;1.70;;;27.90;83.30;;;;;;5032425;28;20449;-71
2022/12/25 09:57:59;;;;;;;2.37;2.17;;;28.30;90.40;;;;;;5032590;28;20413;-70
2022/12/25 10:00:34;;;;;;;2.63;2.43;;;29.20;68.00;;;;;;5032560;28;20421;-70
2022/12/25 10:03:28;;;;;;;2.37;2.17;;;30.30;75.30;;;;;;5032513;28;20490;-70
2022/12/25 10:06:17;;;;;;;3.57;2.47;;;30.40;70.30;;;;;;5014704;28;20456;-70
2022/12/25 10:09:02;;;;;;;3.63;2.03;;;30.60;62.60;;;;;;5032058;28;20488;-70
2022/12/25 10:11:51;;;;;;;2.83;2.57;;;30.80;56.60;;;;;;5032205;28;20790;-70
2022/12/25 10:14:29;;;;;;;2.13;1.90;;;31.00;56.30;;;;;;5032321;28;20858;-71
2022/12/25 10:17:23;;;;;;;2.47;2.27;;;31.80;56.20;;;;;;5032318;28;20421;-70
2022/12/25 10:19:58;;;;;;;1.93;1.83;;;30.00;55.10;;;;;;5031665;28;20448;-70
2022/12/25 10:22:36;;;;;;;2.80;2.60;;;30.10;54.50;;;;;;5032070;28;20795;-70
2022/12/25 10:25:03;;;;;;;3.50;3.30;;;28.70;54.60;;;;;;5032059;28;20474;-70
2022/12/25 10:27:37;;;;;;;2.80;2.40;;;27.90;57.30;;;;;;5032063;28;20419;-70
2022/12/25 10:30:13;;;;;;;3.37;2.23;;;26.00;59.40;;;;;;5031798;28;20760;-69
2022/12/25 10:32:39;;;;;;;2.73;2.33;;;25.20;64.30;;;;;;5031967;28;20467;-70
2022/12/25 10:35:05;;;;;;;2.63;2.30;;;24.70;67.30;;;;;;5032065;28;20448;-69
2022/12/25 10:37:30;;;;;;;2.97;1.83;;;23.80;72.00;;;;;;5031985;28;20224;-70
2022/12/25 10:39:56;;;;;;;2.07;1.93;;;23.90;74.10;;;;;;5031705;28;20416;-69
2022/12/25 10:42:39;;;;;;;2.30;2.10;;;24.30;72.50;;;;;;5031682;28;20182;-70
2022/12/25 10:45:08;;;;;;;2.30;2.03;;;24.40;72.40;;;;;;5031963;28;20224;-70
2022/12/25 10:47:41;;;;;;;2.13;2.03;;;25.50;74.80;;;;;;5031852;28;20421;-70
2022/12/25 10:50:19;;;;;;;2.00;1.90;;;25.40;74.00;;;;;;5031685;28;20761;-69
2022/12/25 10:53:16;;;;;;;1.80;1.70;;;23.80;77.40;;;;;;5031756;28;20449;-72
2022/12/25 10:55:42;;;;;;;2.20;2.00;;;21.90;87.10;;;;;;5021151;28;20441;-72
2022/12/25 10:58:17;;;;;;;2.47;2.37;;;20.60;96.40;;;;;;5031782;28;20907;-72
2022/12/25 11:00:52;;;;;;;3.70;2.10;;;20.60;96.90;;;;;;5031956;28;20181;-72
2022/12/25 11:03:22;;;;;;;2.10;1.90;;;20.70;97.10;;;;;;5031734;28;20531;-72
2022/12/25 11:05:53;;;;;;;2.40;1.90;;;20.30;97.30;;;;;;5031604;28;20539;-72
2022/12/25 11:08:22;;;;;;;2.40;2.20;;;19.30;99.90;;;;;;5031406;28;20818;-71
2022/12/25 11:10:54;;;;;;;3.23;2.93;;;18.40;99.90;;;;;;5031755;28;20848;-71
2022/12/25 11:13:23;;;;;;;2.90;2.60;;;17.80;99.90;;;;;;5031575;28;20500;-71
2022/12/25 11:16:01;;;;;;;2.40;2.20;;;17.30;99.90;;;;;;5031697;28;20449;-71
2022/12/25 11:18:42;;;;;;;3.03;2.40;;;16.80;99.90;;;;;;5031467;28;20416;-71
2022/12/25 11:21:36;;;;;;;2.50;2.30;;;17.20;99.90;;;;;;5031720;28;20495;-71
2022/12/25 11:24:05;;;;;;;3.33;3.03;;;19.00;99.90;;;;;;5014502;28;20432;-72
2022/12/25 11:26:44;;;;;;;2.57;2.37;;;20.30;99.90;;;;;;5031555;28;20539;-71
2022/12/25 11:29:27;;;;;;;3.23;2.93;;;20.30;99.90;;;;;;5031273;28;20413;-71
2022/12/25 11:31:56;;;;;;;2.53;2.33;;;18.80;99.90;;;;;;5033984;28;20428;-71
2022/12/25 11:34:40;;;;;;;2.97;2.70;;;18.90;99.90;;;;;;5035366;28;20476;-72
2022/12/25 11:37:14;;;;;;;2.93;2.73;;;19.30;99.90;;;;;;5035339;28;20421;-72
2022/12/25 11:39:41;;;;;;;2.60;2.40;;;19.90;99.90;;;;;;5034983;28;20505;-72
2022/12/25 11:42:09;;;;;;;2.50;2.30;;;20.80;99.90;;;;;;5034931;28;20901;-72
2022/12/25 11:44:51;;;;;;;2.20;2.10;;;22.10;99.80;;;;;;5035141;28;20417;-72
2022/12/25 11:47:35;;;;;;;3.23;2.93;;;23.30;93.90;;;;;;5035068;28;20456;-72
2022/12/25 11:50:13;;;;;;;3.00;2.50;;;23.30;93.70;;;;;;5034762;28;20432;-72
2022/12/25 11:52:43;;;;;;;2.17;2.07;;;22.50;95.10;;;;;;5034958;28;20499;-72
2022/12/25 11:55:21;;;;;;;2.60;2.40;;;22.40;94.60;;;;;;5034981;28;20432;-72
2022/12/25 11:57:53;;;;;;;1.87;1.77;;;22.50;95.30;;;;;;5034986;28;20447;-71
2022/12/25 12:00:26;;;;;;;2.60;2.13;;;21.30;96.90;;;;;;5034641;28;20393;-71
2022/12/25 12:03:16;;;;;;;2.40;2.20;;;20.60;99.90;;;;;;5034793;28;20424;-71
2022/12/25 12:05:46;;;;;;;4.50;2.60;;;21.40;99.00;;;;;;5034707;28;20456;-71
2022/12/25 12:08:13;;;;;;;2.97;2.50;;;21.60;97.90;;;;;;5034613;28;20421;-71
2022/12/25 12:11:17;;;;;;;3.27;2.53;;;22.80;96.10;;;;;;5034600;28;20409;-71
2022/12/25 12:14:11;;;;;;;3.30;3.10;;;23.70;92.80;;;;;;5035053;28;20457;-70
2022/12/25 12:16:36;;;;;;;2.90;2.67;;;23.80;91.80;;;;;;5034538;28;20429;-71
2022/12/25 12:19:28;;;;;;;2.63;2.50;;;24.50;90.00;;;;;;5034133;28;20423;-70
2022/12/25 12:21:57;;;;;;;2.40;2.30;;;23.60;91.50;;;;;;5034380;28;20198;-71
2022/12/25 12:24:26;;;;;;;3.27;2.57;;;23.90;92.40;;;;;;5034464;28;20413;-71
2022/12/25 12:27:02;;;;;;;2.77;2.57;;;25.80;86.60;;;;;;5034349;28;20826;-71
2022/12/25 12:29:34;;;;;;;4.10;2.10;;;27.10;77.60;;;;;;5034071;28;20404;-71
2022/12/25 12:32:02;;;;;;;2.57;2.37;;;28.50;78.70;;;;;;5016552;28;20532;-71
2022/12/25 12:34:41;;;;;;;2.47;2.27;;;26.70;78.40;;;;;;5034265;28;20413;-71
2022/12/25 12:37:17;;;;;;;2.87;2.10;;;25.40;83.40;;;;;;5016488;28;21185;-70
2022/12/25 12:39:43;;;;;;;2.50;2.30;;;24.40;87.80;;;;;;5033857;28;20977;-70
2022/12/25 12:42:17;;;;;;;2.87;2.67;;;23.90;91.20;;;;;;5033857;28;20433;-70
2022/12/25 12:44:45;;;;;;;2.73;2.53;;;23.90;91.00;;;;;;5034144;28;20417;-70
2022/12/25 12:47:37;;;;;;;4.27;2.50;;;24.60;90.60;;;;;;5033987;28;20464;-70
2022/12/25 12:50:04;;;;;;;2.30;2.20;;;25.60;85.80;;;;;;5033645;28;20405;-71
2022/12/25 12:52:36;;;;;;;2.53;2.17;;;26.80;81.90;;;;;;5033899;28;20797;-71
2022/12/25 12:55:08;;;;;;;2.37;2.17;;;27.10;79.60;;;;;;5033829;28;20428;-71
2022/12/25 12:57:38;;;;;;;2.43;2.20;;;28.10;78.90;;;;;;5033811;28;20413;-68
2022/12/25 13:00:08;;;;;;;2.47;2.27;;;29.50;73.00;;;;;;5033490;28;20413;-68
2022/12/25 13:02:52;;;;;;;2.20;2.10;;;29.10;71.60;;;;;;5032492;28;20440;-69
2022/12/25 13:05:48;;;;;;;2.50;2.30;;;29.00;72.00;;;;;;5033578;28;20417;-70
2022/12/25 13:08:38;;;;;;;2.63;2.43;;;28.50;72.60;;;;;;5033342;28;20417;-71
2022/12/25 13:11:15;;;;;;;3.87;3.50;;;27.70;70.80;;;;;;5033624;28;20401;-71
2022/12/25 13:13:44;;;;;;;2.10;1.90;;;28.40;70.80;;;;;;5033494;28;20433;-70
2022/12/25 13:16:34;;;;;;;1.93;1.83;;;27.60;70.60;;;;;;5033464;28;20974;-70
2022/12/25 13:19:05;;;;;;;2.20;2.10;;;26.90;71.40;;;;;;5032486;28;20948;-70
2022/12/25 13:21:32;;;;;;;2.37;2.17;;;25.20;75.30;;;;;;5033409;28;20925;-70
2022/12/25 13:24:09;;;;;;;2.17;2.03;;;24.40;78.20;;;;;;5033408;28;20869;-70
2022/12/25 13:26:35;;;;;;;2.20;2.00;;;24.00;81.90;;;;;;5033215;28;20559;-70
2022/12/25 13:29:01;;;;;;;2.63;2.43;;;23.10;86.30;;;;;;5032961;28;20475;-70
2022/12/25 13:31:29;;;;;;;7.03;2.77;;;22.00;90.90;;;;;;5033099;28;20425;-70
2022/12/25 13:33:59;;;;;;;2.30;2.13;;;21.80;92.80;;;;;;5032881;28;20445;-70
2022/12/25 13:36:27;;;;;;;2.50;2.30;;;20.90;96.10;;;;;;5033137;28;20420;-70
2022/12/25 13:38:55;;;;;;;2.87;2.23;;;20.10;99.30;;;;;;5032641;28;20436;-70
2022/12/25 13:44:27;;;;;;;2.23;2.07;;;18.50;99.90;;;;;;5032960;28;20988;-70
2022/12/25 13:46:53;;;;;;;2.40;2.20;;;18.00;99.90;;;;;;5032786;28;20460;-70
2022/12/25 13:49:21;;;;;;;2.40;2.20;;;17.70;99.90;;;;;;5032518;28;20409;-70
2022/12/25 13:51:47;;;;;;;2.27;2.07;;;17.30;99.90;;;;;;5032690;28;20224;-70
2022/12/25 13:54:14;;;;;;;2.67;2.47;;;17.30;99.90;;;;;;5032357;28;20413;-70
2022/12/25 13:57:06;;;;;;;2.90;2.70;;;17.20;99.90;;;;;;5032728;28;20449;-70
2022/12/25 13:59:32;;;;;;;3.80;3.40;;;17.00;99.90;;;;;;5032394;28;20420;-70
2022/12/25 14:01:58;;;;;;;3.40;3.10;;;16.80;99.90;;;;;;5032488;28;20440;-70
2022/12/25 14:04:24;;;;;;;3.67;3.37;;;16.70;99.90;;;;;;5032451;28;20166;-70
2022/12/25 14:06:50;;;;;;;3.90;3.50;;;16.70;99.90;;;;;;5032605;28;20550;-70
2022/12/25 14:09:16;;;;;;;4.43;4.07;;;16.60;99.90;;;;;;5032119;28;20178;-70
2022/12/25 14:11:50;;;;;;;4.17;3.87;;;16.50;99.90;;;;;;5032273;28;20443;-70
2022/12/25 14:14:22;;;;;;;4.07;3.17;;;16.40;99.90;;;;;;5032364;28;20951;-70
2022/12/25 14:16:49;;;;;;;3.90;3.37;;;16.30;99.90;;;;;;5032260;28;20432;-70
2022/12/25 14:19:41;;;;;;;2.47;2.27;;;16.20;99.90;;;;;;5031969;28;20764;-70
2022/12/25 14:22:20;;;;;;;2.20;2.10;;;16.10;99.90;;;;;;5028490;28;20448;-70
2022/12/25 14:24:46;;;;;;;3.27;3.00;;;15.90;99.90;;;;;;5014782;28;20432;-70
2022/12/25 14:27:24;;;;;;;2.87;2.50;;;15.90;99.90;;;;;;5031966;28;20521;-70
2022/12/25 14:29:53;;;;;;;2.80;2.43;;;15.80;99.90;;;;;;5032096;28;20413;-70
2022/12/25 14:32:22;;;;;;;2.73;2.53;;;15.70;99.90;;;;;;5031961;28;20524;-70
2022/12/25 14:34:53;;;;;;;2.80;2.60;;;15.70;99.90;;;;;;5032136;28;20413;-70
2022/12/25 14:37:22;;;;;;;4.27;2.40;;;15.60;99.90;;;;;;5032172;28;20417;-70
2022/12/25 14:39:57;;;;;;;2.80;2.60;;;15.50;99.90;;;;;;5031724;28;20429;-70
2022/12/25 14:42:28;;;;;;;6.73;3.00;;;15.30;99.90;;;;;;5031705;28;20428;-70
2022/12/25 14:45:05;;;;;;;3.47;3.17;;;15.20;99.90;;;;;;5032067;28;20918;-70
2022/12/25 14:47:32;;;;;;;2.57;2.37;;;15.20;99.90;;;;;;5031803;28;20456;-70